createdAt,value
2023-02-25T00:02:26.122Z,-14.40
2023-02-25T00:04:56.910Z,-14.50
2023-02-25T00:07:29.680Z,-14.50
2023-02-25T00:10:02.930Z,-14.50
2023-02-25T00:12:33.728Z,-14.50
2023-02-25T00:15:06.935Z,-14.40
2023-02-25T00:17:39.313Z,-14.50
2023-02-25T00:20:14.141Z,-14.50
2023-02-25T00:22:45.233Z,-14.60
2023-02-25T00:25:17.498Z,-14.70
2023-02-25T00:27:47.787Z,-14.70
2023-02-25T00:30:20.427Z,-14.70
2023-02-25T00:32:53.226Z,-14.70
2023-02-25T00:35:23.747Z,-14.80
2023-02-25T00:37:59.139Z,-14.80
2023-02-25T00:40:34.143Z,-14.90
2023-02-25T00:43:04.288Z,-14.90
2023-02-25T00:45:37.252Z,-14.90
2023-02-25T00:48:07.506Z,-14.90
2023-02-25T00:50:40.274Z,-14.90
2023-02-25T00:53:10.352Z,-15.00
2023-02-25T00:55:40.674Z,-15.00
2023-02-25T00:58:10.867Z,-15.20
2023-02-25T01:00:51.512Z,-15.20
2023-02-25T01:03:22.152Z,-15.30
2023-02-25T01:05:52.375Z,-15.40
2023-02-25T01:08:26.447Z,-15.60
2023-02-25T01:10:56.752Z,-15.60
2023-02-25T01:13:27.194Z,-15.60
2023-02-25T01:16:00.264Z,-15.70
2023-02-25T01:18:31.337Z,-15.70
2023-02-25T01:21:02.032Z,-15.50
2023-02-25T01:23:32.367Z,-15.40
2023-02-25T01:26:02.889Z,-15.30
2023-02-25T01:28:33.178Z,-15.20
2023-02-25T01:31:09.100Z,-15.20
2023-02-25T01:33:39.962Z,-15.20
2023-02-25T01:36:10.791Z,-15.20
2023-02-25T01:38:42.475Z,-15.30
2023-02-25T01:41:12.849Z,-15.30
2023-02-25T01:43:44.243Z,-15.30
2023-02-25T01:46:17.489Z,-15.30
2023-02-25T01:48:47.879Z,-15.30
2023-02-25T01:51:18.072Z,-15.30
2023-02-25T01:53:51.400Z,-15.20
2023-02-25T01:56:25.726Z,-15.10
2023-02-25T01:58:57.381Z,-15.00
2023-02-25T02:01:32.319Z,-14.90
2023-02-25T02:04:06.350Z,-14.80
2023-02-25T02:06:39.350Z,-14.90
2023-02-25T02:09:11.354Z,-15.00
2023-02-25T02:11:43.159Z,-14.90
2023-02-25T02:14:19.280Z,-14.90
2023-02-25T02:17:22.702Z,-14.80
2023-02-25T02:20:15.337Z,-14.80
2023-02-25T02:22:58.764Z,-14.90
2023-02-25T02:25:58.235Z,-15.00
2023-02-25T02:29:06.527Z,-15.10
2023-02-25T02:31:52.120Z,-15.30
2023-02-25T02:34:33.779Z,-15.40
2023-02-25T02:37:10.070Z,-15.50
2023-02-25T02:39:52.186Z,-15.60
2023-02-25T02:42:33.959Z,-15.60
2023-02-25T02:45:12.769Z,-15.60
2023-02-25T02:47:48.608Z,-15.70
2023-02-25T02:50:26.105Z,-15.90
2023-02-25T02:53:01.457Z,-16.10
2023-02-25T02:55:36.691Z,-16.30
2023-02-25T02:58:11.368Z,-16.30
2023-02-25T03:00:45.222Z,-16.40
2023-02-25T03:03:20.707Z,-16.50
2023-02-25T03:05:55.190Z,-16.70
2023-02-25T03:08:31.398Z,-16.90
2023-02-25T03:11:04.183Z,-17.10
2023-02-25T03:13:34.714Z,-17.40
2023-02-25T03:16:10.354Z,-17.50
2023-02-25T03:18:46.527Z,-17.70
2023-02-25T03:21:22.297Z,-17.90
2023-02-25T03:23:53.720Z,-17.90
2023-02-25T03:26:29.070Z,-17.70
2023-02-25T03:28:59.465Z,-17.50
2023-02-25T03:31:35.401Z,-17.70
2023-02-25T03:34:12.430Z,-18.00
2023-02-25T03:36:47.740Z,-18.20
2023-02-25T03:39:20.469Z,-18.50
2023-02-25T03:41:54.565Z,-18.70
2023-02-25T03:44:27.917Z,-18.60
2023-02-25T03:46:58.812Z,-18.70
2023-02-25T03:49:33.546Z,-18.80
2023-02-25T03:52:07.108Z,-18.70
2023-02-25T03:54:37.428Z,-18.30
2023-02-25T03:57:07.579Z,-18.10
2023-02-25T03:59:38.046Z,-18.00
2023-02-25T04:02:08.997Z,-17.90
2023-02-25T04:04:40.997Z,-18.00
2023-02-25T04:07:11.106Z,-17.90
2023-02-25T04:09:41.939Z,-17.90
2023-02-25T04:12:12.128Z,-17.90
2023-02-25T04:14:42.532Z,-17.90
2023-02-25T04:17:13.722Z,-18.00
2023-02-25T04:19:45.363Z,-18.30
2023-02-25T04:22:15.451Z,-18.60
2023-02-25T04:24:45.669Z,-18.80
2023-02-25T04:27:16.611Z,-19.00
2023-02-25T04:29:47.190Z,-19.10
2023-02-25T04:32:17.575Z,-19.10
2023-02-25T04:34:49.327Z,-19.00
2023-02-25T04:37:19.524Z,-19.10
2023-02-25T04:39:49.594Z,-19.20
2023-02-25T04:42:19.619Z,-19.50
2023-02-25T04:44:49.765Z,-19.80
2023-02-25T04:47:20.145Z,-20.10
2023-02-25T04:49:51.841Z,-20.40
2023-02-25T04:52:22.248Z,-20.70
2023-02-25T04:54:52.371Z,-21.00
2023-02-25T04:57:22.725Z,-21.00
2023-02-25T04:59:53.979Z,-20.90
2023-02-25T05:02:24.424Z,-20.70
2023-02-25T05:04:56.306Z,-20.50
2023-02-25T05:07:26.417Z,-20.60
2023-02-25T05:09:56.498Z,-20.80
2023-02-25T05:12:26.614Z,-20.80
2023-02-25T05:14:56.934Z,-21.00
2023-02-25T05:17:27.110Z,-21.00
2023-02-25T05:19:59.181Z,-21.10
2023-02-25T05:22:30.332Z,-21.30
2023-02-25T05:25:00.333Z,-21.50
2023-02-25T05:27:30.504Z,-21.60
2023-02-25T05:30:00.693Z,-21.40
2023-02-25T05:32:32.993Z,-21.50
2023-02-25T05:35:04.754Z,-21.50
2023-02-25T05:37:35.278Z,-21.50
2023-02-25T05:40:05.996Z,-21.50
2023-02-25T05:42:36.133Z,-21.50
2023-02-25T05:45:06.538Z,-21.60
2023-02-25T05:47:37.128Z,-21.70
2023-02-25T05:50:09.480Z,-21.80
2023-02-25T05:52:39.918Z,-22.00
2023-02-25T05:55:11.464Z,-22.00
2023-02-25T05:57:41.718Z,-21.90
2023-02-25T06:00:15.480Z,-21.80
2023-02-25T06:02:46.679Z,-21.80
2023-02-25T06:05:18.592Z,-21.90
2023-02-25T06:07:48.829Z,-22.00
2023-02-25T06:10:20.237Z,-21.90
2023-02-25T06:12:50.337Z,-21.90
2023-02-25T06:15:20.964Z,-21.70
2023-02-25T06:17:52.047Z,-21.50
2023-02-25T06:20:25.814Z,-21.30
2023-02-25T06:22:56.544Z,-21.20
2023-02-25T06:25:27.296Z,-21.20
2023-02-25T06:27:57.542Z,-21.20
2023-02-25T06:30:28.660Z,-21.20
2023-02-25T06:32:59.310Z,-21.20
2023-02-25T06:35:31.079Z,-21.20
2023-02-25T06:38:02.343Z,-21.30
2023-02-25T06:40:33.688Z,-21.50
2023-02-25T06:43:03.789Z,-21.80
2023-02-25T06:45:33.827Z,-22.00
2023-02-25T06:48:03.991Z,-22.30
2023-02-25T06:50:35.646Z,-22.30
2023-02-25T06:53:05.934Z,-22.30
2023-02-25T06:55:36.197Z,-22.40
2023-02-25T06:58:06.452Z,-22.40
2023-02-25T07:00:38.360Z,-22.30
2023-02-25T07:03:08.737Z,-22.30
2023-02-25T07:05:40.415Z,-22.40
2023-02-25T07:08:10.746Z,-22.40
2023-02-25T07:10:42.660Z,-22.50
2023-02-25T07:13:14.009Z,-22.50
2023-02-25T07:15:44.467Z,-22.60
2023-02-25T07:18:14.919Z,-22.70
2023-02-25T07:20:46.528Z,-22.70
2023-02-25T07:23:16.601Z,-22.80
2023-02-25T07:25:47.438Z,-22.80
2023-02-25T07:28:17.857Z,-22.70
2023-02-25T07:30:48.006Z,-22.80
2023-02-25T07:33:18.181Z,-23.00
2023-02-25T07:35:50.184Z,-23.10
2023-02-25T07:38:20.201Z,-23.30
2023-02-25T07:40:50.300Z,-23.40
2023-02-25T07:43:20.513Z,-23.50
2023-02-25T07:45:52.935Z,-23.60
2023-02-25T07:48:23.110Z,-23.80
2023-02-25T07:50:54.806Z,-23.70
2023-02-25T07:53:25.374Z,-23.40
2023-02-25T07:55:55.411Z,-23.20
2023-02-25T07:58:25.511Z,-23.10
2023-02-25T08:00:55.586Z,-23.00
2023-02-25T08:03:26.019Z,-22.90
2023-02-25T08:05:58.166Z,-22.90
2023-02-25T08:08:28.319Z,-23.10
2023-02-25T08:10:58.386Z,-23.30
2023-02-25T08:13:28.719Z,-23.50
2023-02-25T08:15:59.115Z,-23.70
2023-02-25T08:18:30.031Z,-23.80
2023-02-25T08:21:03.004Z,-24.00
2023-02-25T08:23:33.317Z,-24.10
2023-02-25T08:26:04.500Z,-24.10
2023-02-25T08:28:37.140Z,-24.20
2023-02-25T08:31:11.951Z,-24.20
2023-02-25T08:33:44.028Z,-24.20
2023-02-25T08:36:18.276Z,-24.30
2023-02-25T08:38:48.581Z,-23.90
2023-02-25T08:41:19.171Z,-23.60
2023-02-25T08:43:52.062Z,-23.40
2023-02-25T08:46:22.481Z,-23.40
2023-02-25T08:48:53.087Z,-23.50
2023-02-25T08:51:26.965Z,-23.50
2023-02-25T08:53:57.059Z,-23.70
2023-02-25T08:56:27.086Z,-23.80
2023-02-25T08:58:57.576Z,-23.90
2023-02-25T09:01:39.699Z,-23.80
2023-02-25T09:04:10.095Z,-23.80
2023-02-25T09:06:41.889Z,-23.90
2023-02-25T09:09:14.021Z,-24.00
2023-02-25T09:11:45.105Z,-24.10
2023-02-25T09:14:16.117Z,-24.30
2023-02-25T09:16:47.129Z,-24.30
2023-02-25T09:19:18.988Z,-24.30
2023-02-25T09:21:50.913Z,-24.40
2023-02-25T09:24:21.606Z,-24.50
2023-02-25T09:26:51.786Z,-24.60
2023-02-25T09:29:21.982Z,-24.50
2023-02-25T09:31:52.220Z,-24.30
2023-02-25T09:34:23.313Z,-24.10
2023-02-25T09:36:55.586Z,-24.00
2023-02-25T09:39:25.710Z,-24.00
2023-02-25T09:42:02.416Z,-24.10
2023-02-25T09:44:34.690Z,-24.20
2023-02-25T09:47:07.520Z,-24.30
2023-02-25T09:49:40.885Z,-24.50
2023-02-25T09:52:19.214Z,-24.60
2023-02-25T09:54:52.312Z,-24.80
2023-02-25T09:57:24.096Z,-24.80
2023-02-25T09:59:55.740Z,-24.60
2023-02-25T10:02:32.792Z,-24.60
2023-02-25T10:05:18.973Z,-24.60
2023-02-25T10:08:00.734Z,-24.70
2023-02-25T10:10:40.613Z,-24.60
2023-02-25T10:13:25.308Z,-24.60
2023-02-25T10:16:04.696Z,-24.60
2023-02-25T10:18:52.334Z,-24.60
2023-02-25T10:21:32.564Z,-24.60
2023-02-25T10:24:27.418Z,-24.60
2023-02-25T10:27:01.832Z,-24.60
2023-02-25T10:29:38.818Z,-24.70
2023-02-25T10:32:20.319Z,-24.70
2023-02-25T10:34:52.192Z,-24.70
2023-02-25T10:37:27.721Z,-24.70
2023-02-25T10:40:04.481Z,-24.70
2023-02-25T10:42:36.139Z,-24.70
2023-02-25T10:45:14.793Z,-24.70
2023-02-25T10:47:48.528Z,-24.60
2023-02-25T10:50:23.106Z,-24.60
2023-02-25T10:52:56.789Z,-24.60
2023-02-25T10:55:56.333Z,-24.50
2023-02-25T10:58:40.994Z,-24.20
2023-02-25T11:01:16.014Z,-24.10
2023-02-25T11:03:55.640Z,-23.90
2023-02-25T11:06:28.761Z,-23.80
2023-02-25T11:09:00.639Z,-23.70
2023-02-25T11:11:33.882Z,-23.70
2023-02-25T11:14:06.994Z,-23.60
2023-02-25T11:16:39.527Z,-23.50
2023-02-25T11:19:17.198Z,-23.40
2023-02-25T11:21:48.352Z,-23.30
2023-02-25T11:24:21.312Z,-23.30
2023-02-25T11:26:54.754Z,-23.10
2023-02-25T11:29:28.023Z,-23.00
2023-02-25T11:32:04.956Z,-23.00
2023-02-25T11:34:38.169Z,-23.00
2023-02-25T11:37:26.549Z,-22.90
2023-02-25T11:39:58.476Z,-22.80
2023-02-25T11:42:32.016Z,-22.80
2023-02-25T11:45:04.002Z,-22.70
2023-02-25T11:47:35.460Z,-22.60
2023-02-25T11:50:22.098Z,-22.50
2023-02-25T11:52:59.355Z,-22.50
2023-02-25T11:55:46.848Z,-22.40
2023-02-25T11:58:31.645Z,-22.30
2023-02-25T12:01:05.562Z,-22.20
2023-02-25T12:03:59.649Z,-22.20
2023-02-25T12:06:58.781Z,-22.10
2023-02-25T12:10:10.938Z,-22.00
2023-02-25T12:13:11.814Z,-21.80
2023-02-25T12:16:08.430Z,-21.70
2023-02-25T12:19:08.465Z,-21.50
2023-02-25T12:22:13.674Z,-21.30
2023-02-25T12:25:11.117Z,-21.10
2023-02-25T12:28:34.961Z,-20.80
2023-02-25T12:31:20.741Z,-20.60
2023-02-25T12:34:09.192Z,-20.30
2023-02-25T12:36:53.489Z,-20.10
2023-02-25T12:39:49.750Z,-20.00
2023-02-25T12:42:32.701Z,-19.80
2023-02-25T12:45:24.035Z,-19.60
2023-02-25T12:48:24.820Z,-19.40
2023-02-25T12:51:15.380Z,-19.30
2023-02-25T12:53:56.132Z,-19.10
2023-02-25T12:56:53.850Z,-18.90
2023-02-25T12:59:43.005Z,-18.70
2023-02-25T13:02:34.665Z,-18.50
2023-02-25T13:05:43.979Z,-18.30
2023-02-25T13:08:29.692Z,-18.20
2023-02-25T13:11:05.053Z,-18.00
2023-02-25T13:14:09.101Z,-17.90
2023-02-25T13:16:53.882Z,-17.70
2023-02-25T13:19:50.739Z,-17.40
2023-02-25T13:22:35.721Z,-17.30
2023-02-25T13:25:19.910Z,-17.10
2023-02-25T13:28:24.211Z,-16.90
2023-02-25T13:31:01.236Z,-16.90
2023-02-25T13:34:02.125Z,-16.70
2023-02-25T13:36:46.986Z,-16.40
2023-02-25T13:39:38.143Z,-16.30
2023-02-25T13:42:29.640Z,-16.00
2023-02-25T13:45:29.944Z,-15.70
2023-02-25T13:48:29.905Z,-15.40
2023-02-25T13:51:22.025Z,-15.30
2023-02-25T13:54:03.595Z,-15.30
2023-02-25T13:56:50.151Z,-15.30
2023-02-25T13:59:37.660Z,-15.20
2023-02-25T14:02:27.302Z,-15.40
2023-02-25T14:05:24.004Z,-15.30
2023-02-25T14:08:29.402Z,-15.10
2023-02-25T14:11:11.864Z,-14.90
2023-02-25T14:13:59.164Z,-14.90
2023-02-25T14:16:52.424Z,-14.80
2023-02-25T14:19:39.373Z,-14.50
2023-02-25T14:22:28.729Z,-14.30
2023-02-25T14:25:08.643Z,-14.10
2023-02-25T14:27:49.967Z,-13.70
2023-02-25T14:30:29.600Z,-13.30
2023-02-25T14:33:28.131Z,-13.00
2023-02-25T14:36:10.042Z,-12.90
2023-02-25T14:39:09.151Z,-12.80
2023-02-25T14:41:49.438Z,-12.50
2023-02-25T14:44:27.629Z,-12.10
2023-02-25T14:47:01.950Z,-11.90
2023-02-25T14:49:37.613Z,-11.90
2023-02-25T14:52:42.773Z,-11.70
2023-02-25T14:55:50.888Z,-11.70
2023-02-25T14:58:54.028Z,-11.60
2023-02-25T15:01:58.968Z,-11.90
2023-02-25T15:04:55.942Z,-11.50
2023-02-25T15:07:55.113Z,-11.80
2023-02-25T15:10:42.180Z,-11.40
2023-02-25T15:13:43.139Z,-10.70
2023-02-25T15:16:37.118Z,-10.30
2023-02-25T15:19:26.960Z,-9.80
2023-02-25T15:22:21.753Z,-9.40
2023-02-25T15:24:52.966Z,-9.20
2023-02-25T15:27:44.777Z,-9.10
2023-02-25T15:30:18.792Z,-8.90
2023-02-25T15:33:15.957Z,-9.20
2023-02-25T15:36:01.057Z,-8.80
2023-02-25T15:38:47.731Z,-8.20
2023-02-25T15:41:41.159Z,-8.10
2023-02-25T15:44:36.843Z,-8.10
2023-02-25T15:47:31.308Z,-8.00
2023-02-25T15:50:02.159Z,-8.10
2023-02-25T15:52:54.994Z,-7.90
2023-02-25T15:55:38.845Z,-7.50
2023-02-25T15:58:52.836Z,-7.30
2023-02-25T16:01:32.060Z,-7.70
2023-02-25T16:04:02.707Z,-7.60
2023-02-25T16:06:41.292Z,-7.50
2023-02-25T16:09:16.360Z,-7.40
2023-02-25T16:14:28.843Z,-7.50
2023-02-25T16:27:38.987Z,-8.00
2023-02-25T16:30:17.175Z,-8.20
2023-02-25T16:32:56.053Z,-8.10
2023-02-25T16:35:32.570Z,-8.20
2023-02-25T16:38:11.451Z,-8.30
2023-02-25T16:40:43.270Z,-8.40
2023-02-25T16:43:19.471Z,-7.90
2023-02-25T16:46:00.376Z,-7.50
2023-02-25T16:48:33.683Z,-7.40
2023-02-25T16:51:11.489Z,-7.10
2023-02-25T16:53:47.482Z,-6.90
2023-02-25T16:56:20.960Z,-6.80
2023-02-25T16:59:08.290Z,-7.10
2023-02-25T17:01:40.189Z,-7.50
2023-02-25T17:04:18.519Z,-7.40
2023-02-25T17:07:09.964Z,-7.50
2023-02-25T17:09:46.453Z,-7.80
2023-02-25T17:12:21.207Z,-8.10
2023-02-25T17:14:54.911Z,-7.40
2023-02-25T17:17:29.877Z,-7.40
2023-02-25T17:20:01.538Z,-7.40
2023-02-25T17:22:33.396Z,-7.70
2023-02-25T17:25:05.583Z,-7.50
2023-02-25T17:27:36.636Z,-7.70
2023-02-25T17:30:40.420Z,-7.70
2023-02-25T17:33:24.065Z,-7.80
2023-02-25T17:35:59.727Z,-7.70
2023-02-25T17:38:31.000Z,-7.20
2023-02-25T17:41:01.588Z,-7.00
2023-02-25T17:43:38.071Z,-7.20
2023-02-25T17:46:25.699Z,-7.00
2023-02-25T17:48:58.704Z,-7.10
2023-02-25T17:51:34.733Z,-7.00
2023-02-25T17:54:10.184Z,-6.80
2023-02-25T17:56:40.527Z,-6.80
2023-02-25T17:59:40.201Z,-7.00
2023-02-25T18:02:34.118Z,-7.20
2023-02-25T18:05:25.944Z,-6.80
2023-02-25T18:08:05.997Z,-7.30
2023-02-25T18:10:55.750Z,-7.50
2023-02-25T18:13:31.742Z,-7.40
2023-02-25T18:16:38.034Z,-7.60
2023-02-25T18:19:33.460Z,-8.00
2023-02-25T18:22:03.607Z,-7.70
2023-02-25T18:24:35.495Z,-8.00
2023-02-25T18:27:21.433Z,-8.20
2023-02-25T18:29:51.838Z,-8.60
2023-02-25T18:32:22.005Z,-8.30
2023-02-25T18:34:53.941Z,-8.40
2023-02-25T18:37:24.068Z,-8.40
2023-02-25T18:39:54.350Z,-8.40
2023-02-25T18:42:25.088Z,-8.30
2023-02-25T18:44:55.590Z,-8.10
2023-02-25T18:47:30.183Z,-8.00
2023-02-25T18:50:01.858Z,-8.30
2023-02-25T18:52:31.917Z,-8.50
2023-02-25T18:55:02.216Z,-8.30
2023-02-25T18:57:32.470Z,-8.10
2023-02-25T19:00:02.696Z,-8.20
2023-02-25T19:02:35.080Z,-8.30
2023-02-25T19:05:08.045Z,-8.30
2023-02-25T19:07:38.424Z,-8.40
2023-02-25T19:10:10.287Z,-8.30
2023-02-25T19:12:40.487Z,-8.60
2023-02-25T19:15:16.286Z,-8.80
2023-02-25T19:17:47.017Z,-8.60
2023-02-25T19:20:20.813Z,-8.70
2023-02-25T19:22:54.589Z,-8.20
2023-02-25T19:25:26.579Z,-8.20
2023-02-25T19:27:58.007Z,-7.80
2023-02-25T19:30:29.831Z,-8.10
2023-02-25T19:33:03.633Z,-8.20
2023-02-25T19:35:38.126Z,-8.40
2023-02-25T19:38:09.699Z,-8.40
2023-02-25T19:40:39.815Z,-8.20
2023-02-25T19:43:09.953Z,-8.50
2023-02-25T19:45:41.592Z,-8.40
2023-02-25T19:48:12.201Z,-8.30
2023-02-25T19:50:44.768Z,-8.10
2023-02-25T19:53:14.818Z,-8.20
2023-02-25T19:55:46.307Z,-8.20
2023-02-25T19:58:16.382Z,-8.90
2023-02-25T20:00:47.593Z,-8.60
2023-02-25T20:03:17.948Z,-8.60
2023-02-25T20:05:49.605Z,-8.50
2023-02-25T20:08:19.798Z,-8.20
2023-02-25T20:10:50.505Z,-8.10
2023-02-25T20:13:20.586Z,-8.30
2023-02-25T20:15:50.671Z,-8.40
2023-02-25T20:18:20.731Z,-8.30
2023-02-25T20:20:52.641Z,-8.20
2023-02-25T20:23:22.927Z,-8.40
2023-02-25T20:25:53.130Z,-8.20
2023-02-25T20:28:24.642Z,-8.40
2023-02-25T20:31:05.652Z,-8.40
2023-02-25T20:33:35.970Z,-8.80
2023-02-25T20:36:19.435Z,-9.10
2023-02-25T20:39:16.097Z,-9.20
2023-02-25T20:41:48.490Z,-8.90
2023-02-25T20:44:19.181Z,-8.90
2023-02-25T20:46:49.538Z,-8.90
2023-02-25T20:49:21.458Z,-8.90
2023-02-25T20:51:53.942Z,-8.90
2023-02-25T20:54:24.249Z,-9.00
2023-02-25T20:56:54.610Z,-9.30
2023-02-25T20:59:24.791Z,-9.30
2023-02-25T21:01:54.841Z,-9.40
2023-02-25T21:04:25.052Z,-9.50
2023-02-25T21:06:56.848Z,-9.50
2023-02-25T21:09:27.049Z,-9.50
2023-02-25T21:11:57.526Z,-9.60
2023-02-25T21:14:27.573Z,-9.60
2023-02-25T21:16:57.735Z,-9.50
2023-02-25T21:19:30.334Z,-9.70
2023-02-25T21:22:02.096Z,-9.70
2023-02-25T21:24:34.181Z,-9.80
2023-02-25T21:27:04.626Z,-9.90
2023-02-25T21:29:34.800Z,-9.90
2023-02-25T21:32:05.031Z,-9.80
2023-02-25T21:34:35.359Z,-10.00
2023-02-25T21:37:07.022Z,-10.20
2023-02-25T21:39:37.342Z,-10.40
2023-02-25T21:42:07.688Z,-10.50
2023-02-25T21:44:37.768Z,-10.50
2023-02-25T21:47:08.753Z,-10.30
2023-02-25T21:49:38.994Z,-10.20
2023-02-25T21:52:11.904Z,-10.20
2023-02-25T21:54:41.931Z,-9.90
2023-02-25T21:57:12.218Z,-10.10
2023-02-25T21:59:42.490Z,-10.40
2023-02-25T22:02:13.664Z,-10.60
2023-02-25T22:04:43.756Z,-10.70
2023-02-25T22:07:15.732Z,-10.90
2023-02-25T22:09:45.814Z,-11.10
2023-02-25T22:12:16.022Z,-11.40
2023-02-25T22:14:46.041Z,-11.50
2023-02-25T22:17:16.173Z,-11.60
2023-02-25T22:19:46.216Z,-11.80
2023-02-25T22:22:18.092Z,-12.00
2023-02-25T22:24:48.186Z,-12.20
2023-02-25T22:27:18.317Z,-12.40
2023-02-25T22:29:48.614Z,-12.70
2023-02-25T22:32:18.831Z,-13.00
2023-02-25T22:34:49.135Z,-13.30
2023-02-25T22:37:21.266Z,-13.70
2023-02-25T22:39:51.332Z,-14.00
2023-02-25T22:42:21.496Z,-14.40
2023-02-25T22:44:52.245Z,-14.70
2023-02-25T22:47:22.424Z,-14.90
2023-02-25T22:49:52.525Z,-15.20
2023-02-25T22:52:24.237Z,-15.40
2023-02-25T22:54:54.305Z,-15.60
2023-02-25T22:57:24.473Z,-15.90
2023-02-25T22:59:54.526Z,-16.10
2023-02-25T23:02:24.634Z,-16.30
2023-02-25T23:04:54.875Z,-16.50
2023-02-25T23:07:27.340Z,-16.70
2023-02-25T23:09:57.606Z,-16.80
2023-02-25T23:12:28.340Z,-16.90
2023-02-25T23:14:58.359Z,-17.00
2023-02-25T23:17:28.604Z,-17.20
2023-02-25T23:20:00.886Z,-17.30
2023-02-25T23:22:34.989Z,-17.40
2023-02-25T23:25:05.228Z,-17.50
2023-02-25T23:27:35.873Z,-17.50
2023-02-25T23:30:06.848Z,-17.60
2023-02-25T23:32:39.893Z,-17.60
2023-02-25T23:35:14.879Z,-17.60
2023-02-25T23:37:47.878Z,-17.70
2023-02-25T23:40:18.505Z,-17.80
2023-02-25T23:42:49.115Z,-17.80
2023-02-25T23:45:19.749Z,-18.00
2023-02-25T23:47:50.425Z,-18.00
2023-02-25T23:50:25.879Z,-18.00
2023-02-25T23:52:57.917Z,-18.00
2023-02-25T23:55:29.741Z,-18.00
2023-02-25T23:57:59.932Z,-18.10
